SKRH/RCH METAR and TAF weather

Enter ICAO airport designator
Station Type Date Time Source
SKRH METAR 2019/12/08 11:00 UTC NOAA

SKRH 081100Z 18004KT CAVOK 22/20 A2991


Station Type Date Time Source
SKRH Decoded METAR 2019/12/08 11:00 UTC NOAA

Riohacha / Almirante Padilla, Colombia (SKRH) 11-32N 072-56W 4M
Dec 08, 2019 - 06:00 AM EST / 2019.12.08 1100 UTC
Wind: from the S (180 degrees) at 5 MPH (4 KT):0
Visibility: greater than 7 mile(s):0
Temperature: 71 F (22 C)
Dew Point: 68 F (20 C)
Relative Humidity: 88%
Pressure (altimeter): 29.91 in. Hg (1012 hPa)
ob: SKRH 081100Z 18004KT CAVOK 22/20 A2991
cycle: 11

Station Type Date Time Source
SKRH TAF 2015/07/31 18:51 UTC NOAA

TAF SKRH 311700Z 3118/0118 07010KT 9999 SCT017
TEMPO 3120/0103 09015KT CAVOK
TEMPO 0109/0114 9000 BKN015 TX36/3118Z TN28/0110Z

Example: see airport list